Time;durP1;ratioP1;P1;durP2;ratioP2;P2;SDS_P1;SDS_P2;PMS_P1;PMS_P2;Temp;Humidity;BMP_temperature;BMP_pressure;BME280_temperature;BME280_humidity;BME280_pressure;Samples;Min_cycle;Max_cycle;Signal;HPM_P1;HPM_P2
2020/12/04 00:00:37;;;;;;;36.35;21.25;;;;;;;0.01;74.31;99381.05;126403;1099;104561;-77
2020/12/04 00:03:08;;;;;;;42.53;23.33;;;;;;;0.02;74.26;99374.22;126665;1093;104403;-77
2020/12/04 00:05:35;;;;;;;35.00;21.03;;;;;;;0.02;74.50;99402.41;126678;1093;104493;-76
2020/12/04 00:08:02;;;;;;;40.30;22.70;;;;;;;0.01;74.45;99404.13;126724;1093;105076;-77
2020/12/04 00:10:29;;;;;;;38.23;22.80;;;;;;;0.01;74.55;99393.02;126696;1099;104505;-77
2020/12/04 00:12:56;;;;;;;40.80;23.77;;;;;;;-0.01;74.62;99398.12;126594;1098;104393;-77
2020/12/04 00:15:23;;;;;;;38.20;22.80;;;;;;;0.01;74.47;99398.14;126683;1093;104531;-77
2020/12/04 00:17:50;;;;;;;38.10;22.80;;;;;;;0.02;74.37;99389.59;126700;1098;104446;-78
2020/12/04 00:20:18;;;;;;;42.37;23.33;;;;;;;0.02;74.51;99384.47;126743;1093;104414;-77
2020/12/04 00:22:45;;;;;;;39.43;23.17;;;;;;;0.01;74.43;99391.30;126407;1093;104199;-78
2020/12/04 00:25:12;;;;;;;42.07;22.33;;;;;;;0.01;74.73;99383.62;126629;1093;105452;-77
2020/12/04 00:27:40;;;;;;;37.47;22.53;;;;;;;0.03;74.66;99386.17;126583;1098;104401;-77
2020/12/04 00:30:07;;;;;;;41.43;23.00;;;;;;;0.02;74.75;99374.22;126462;1098;103146;-78
2020/12/04 00:32:34;;;;;;;38.83;22.70;;;;;;;0.03;74.59;99370.79;126507;1093;104452;-76
2020/12/04 00:35:01;;;;;;;38.40;22.90;;;;;;;0.01;74.70;99399.00;126626;1098;104480;-78
2020/12/04 00:37:28;;;;;;;40.30;22.77;;;;;;;0.01;74.86;99390.45;126678;1093;104416;-78
2020/12/04 00:39:55;;;;;;;41.97;23.53;;;;;;;0.01;74.59;99381.05;126551;1093;105285;-76
2020/12/04 00:42:22;;;;;;;39.40;24.33;;;;;;;0.02;75.08;99380.20;126643;1099;104853;-80
2020/12/04 00:44:49;;;;;;;39.03;22.50;;;;;;;0.01;74.89;99382.77;126671;1098;104446;-76
2020/12/04 00:47:16;;;;;;;42.20;23.27;;;;;;;-0.03;75.12;99367.37;126467;1093;104579;-77
2020/12/04 00:49:43;;;;;;;41.90;23.15;;;;;;;-0.01;75.05;99375.05;126671;1099;104427;-77
2020/12/04 00:52:10;;;;;;;41.80;24.13;;;;;;;0.01;75.00;99388.74;126712;1098;104410;-77
2020/12/04 00:54:38;;;;;;;39.57;23.07;;;;;;;0.04;75.05;99385.31;126680;1093;104491;-78
2020/12/04 00:57:07;;;;;;;38.73;21.90;;;;;;;0.05;74.99;99390.43;126607;1093;104519;-76
2020/12/04 00:59:41;;;;;;;42.90;23.63;;;;;;;0.07;74.85;99398.11;126525;1093;104404;-77
2020/12/04 01:02:08;;;;;;;39.60;22.40;;;;;;;0.10;75.09;99398.09;126642;1093;104519;-76
2020/12/04 01:04:35;;;;;;;41.20;23.90;;;;;;;0.10;74.78;99398.09;126587;1098;102739;-77
2020/12/04 01:07:06;;;;;;;38.25;21.75;;;;;;;0.11;74.52;99375.02;126737;1099;104426;-77
2020/12/04 01:09:34;;;;;;;39.70;22.63;;;;;;;0.12;74.73;99373.30;126658;1098;104574;-76
2020/12/04 01:12:02;;;;;;;39.23;22.50;;;;;;;0.12;74.79;99365.61;126402;1093;104199;-77
2020/12/04 01:14:29;;;;;;;42.30;23.20;;;;;;;0.14;74.62;99353.63;126656;1093;104369;-78
2020/12/04 01:16:56;;;;;;;38.60;22.47;;;;;;;0.14;74.78;99343.38;126405;1093;104500;-78
2020/12/04 01:19:23;;;;;;;38.07;21.37;;;;;;;0.15;74.51;99352.77;126678;1093;104528;-77
2020/12/04 01:21:51;;;;;;;41.35;22.77;;;;;;;0.15;74.39;99339.95;126699;1099;103037;-76
2020/12/04 01:24:18;;;;;;;37.30;22.07;;;;;;;0.17;74.90;99333.10;126644;1093;104458;-77
2020/12/04 01:26:45;;;;;;;41.93;23.43;;;;;;;0.17;74.40;99354.47;126648;1093;104550;-76
2020/12/04 01:29:12;;;;;;;42.63;23.00;;;;;;;0.16;74.63;99352.77;126711;1093;104462;-76
2020/12/04 01:31:44;;;;;;;38.35;20.80;;;;;;;0.16;74.70;99341.66;126463;1093;104375;-76
2020/12/04 01:34:11;;;;;;;39.90;22.65;;;;;;;0.14;74.66;99353.63;126595;1098;104638;-76
2020/12/04 01:36:39;;;;;;;40.37;22.77;;;;;;;0.13;74.42;99334.84;126602;1093;105659;-77
2020/12/04 01:39:06;;;;;;;38.87;22.53;;;;;;;0.12;74.60;99324.59;126661;1093;104522;-77
2020/12/04 01:41:35;;;;;;;39.90;21.33;;;;;;;0.11;74.79;99340.83;126708;1094;104933;-77
2020/12/04 01:44:04;;;;;;;38.93;21.73;;;;;;;0.10;74.94;99327.16;126664;1093;103984;-76
2020/12/04 01:46:31;;;;;;;39.70;22.30;;;;;;;0.10;74.55;99328.88;126705;1093;104500;-77
2020/12/04 01:48:58;;;;;;;41.60;22.63;;;;;;;0.11;74.65;99315.20;126691;1098;104349;-77
2020/12/04 01:51:31;;;;;;;38.93;21.97;;;;;;;0.13;74.66;99318.60;126647;1093;104467;-76
2020/12/04 01:53:58;;;;;;;39.90;22.43;;;;;;;0.15;75.02;99314.31;126481;1098;104427;-79
2020/12/04 01:56:25;;;;;;;39.07;22.13;;;;;;;0.14;74.80;99328.84;126707;1093;104450;-78
2020/12/04 01:58:52;;;;;;;40.80;22.00;;;;;;;0.16;74.63;99305.76;126649;1093;104567;-77
2020/12/04 02:01:21;;;;;;;39.50;21.60;;;;;;;0.19;74.70;99305.77;126682;1093;104532;-77
2020/12/04 02:03:48;;;;;;;39.47;21.40;;;;;;;0.19;74.92;99298.08;126587;1098;104478;-77
2020/12/04 02:06:24;;;;;;;39.95;21.90;;;;;;;0.18;74.64;99291.22;126632;1094;104391;-77
2020/12/04 02:09:01;;;;;;;37.80;20.88;;;;;;;0.19;74.45;99282.69;126709;1098;104484;-78
2020/12/04 02:11:30;;;;;;;39.07;21.33;;;;;;;0.19;74.92;99280.12;126681;1093;104509;-77
2020/12/04 02:13:58;;;;;;;39.67;21.17;;;;;;;0.19;74.86;99287.82;126736;1093;104445;-77
2020/12/04 02:16:26;;;;;;;37.63;22.20;;;;;;;0.21;74.59;99280.97;126631;1098;104435;-78
2020/12/04 02:18:53;;;;;;;37.40;20.73;;;;;;;0.21;75.03;99286.09;126661;1093;104366;-77
2020/12/04 02:21:21;;;;;;;38.67;22.90;;;;;;;0.22;74.56;99265.57;126696;1093;104474;-78
2020/12/04 02:23:50;;;;;;;37.70;21.73;;;;;;;0.22;74.78;99267.28;126651;1098;104554;-77
2020/12/04 02:26:22;;;;;;;38.90;21.00;;;;;;;0.24;74.87;99270.69;126697;1093;104282;-78
2020/12/04 02:28:49;;;;;;;36.50;21.07;;;;;;;0.24;74.67;99247.61;126718;1093;104455;-78
2020/12/04 02:31:16;;;;;;;39.30;20.87;;;;;;;0.26;74.70;99263.83;126480;1098;104413;-76
2020/12/04 02:33:44;;;;;;;35.43;19.77;;;;;;;0.29;74.53;99261.23;126623;1093;102153;-76
2020/12/04 02:36:11;;;;;;;39.30;20.90;;;;;;;0.28;74.54;99280.91;126619;1093;104395;-77
2020/12/04 02:38:39;;;;;;;40.73;20.80;;;;;;;0.27;74.80;99260.41;126691;1098;104523;-77
2020/12/04 02:41:07;;;;;;;38.43;20.13;;;;;;;0.27;74.57;99245.02;126682;1098;104470;-77
2020/12/04 02:43:35;;;;;;;37.57;20.70;;;;;;;0.26;74.74;99285.20;126571;1093;104647;-76
2020/12/04 02:46:03;;;;;;;35.17;20.00;;;;;;;0.29;74.72;99243.29;126743;1093;104497;-77
2020/12/04 02:48:30;;;;;;;36.07;19.53;;;;;;;0.26;74.86;99236.47;126598;1093;104279;-77
2020/12/04 02:50:57;;;;;;;37.83;20.50;;;;;;;0.27;74.74;99243.30;126728;1098;104833;-76
2020/12/04 02:53:24;;;;;;;38.57;21.90;;;;;;;0.27;74.77;99245.87;126733;1093;104474;-76
2020/12/04 02:55:51;;;;;;;33.60;19.90;;;;;;;0.28;74.81;99246.72;126691;1098;104371;-77
2020/12/04 02:58:18;;;;;;;39.10;21.52;;;;;;;0.28;74.74;99249.28;126657;1093;104362;-77
2020/12/04 03:00:45;;;;;;;36.50;21.00;;;;;;;0.29;74.81;99263.80;126676;1098;104443;-77
2020/12/04 03:03:12;;;;;;;40.48;19.73;;;;;;;0.31;74.96;99249.25;126758;1093;104493;-77
2020/12/04 03:05:40;;;;;;;37.40;20.37;;;;;;;0.32;74.94;99242.41;126700;1093;104455;-77
2020/12/04 03:08:07;;;;;;;34.48;20.60;;;;;;;0.31;74.87;99244.13;126643;1093;104391;-77
2020/12/04 03:10:34;;;;;;;37.50;20.40;;;;;;;0.32;74.83;99237.28;126677;1093;104527;-77
2020/12/04 03:13:01;;;;;;;33.98;19.07;;;;;;;0.33;74.91;99232.14;126718;1093;104397;-77
2020/12/04 03:15:28;;;;;;;35.67;19.57;;;;;;;0.35;74.58;99220.16;126664;1093;104634;-76
2020/12/04 03:17:56;;;;;;;37.50;20.37;;;;;;;0.36;74.47;99226.13;126698;1093;104416;-76
2020/12/04 03:20:23;;;;;;;35.90;21.13;;;;;;;0.38;74.62;99232.98;126670;1093;104602;-77
2020/12/04 03:22:50;;;;;;;37.30;20.03;;;;;;;0.37;74.65;99238.97;126767;1098;104458;-77
2020/12/04 03:25:17;;;;;;;33.43;19.80;;;;;;;0.36;74.54;99206.50;126563;1093;104484;-76
2020/12/04 03:27:44;;;;;;;35.50;20.25;;;;;;;0.37;74.79;99240.69;126680;1098;104410;-77
2020/12/04 03:30:11;;;;;;;35.53;20.00;;;;;;;0.36;74.47;99237.27;126687;1093;104532;-76
2020/12/04 03:32:38;;;;;;;37.03;20.63;;;;;;;0.37;74.87;99223.59;126604;1093;104522;-77
2020/12/04 03:35:05;;;;;;;35.17;19.97;;;;;;;0.36;74.79;99205.61;126652;1098;104893;-77
2020/12/04 03:37:32;;;;;;;37.67;20.67;;;;;;;0.35;75.17;99215.02;126526;1098;104420;-78
2020/12/04 03:39:59;;;;;;;36.03;20.27;;;;;;;0.35;75.01;99209.05;126757;1099;105233;-76
2020/12/04 03:42:26;;;;;;;37.37;20.40;;;;;;;0.34;74.90;99215.04;126476;1098;103420;-77
2020/12/04 03:44:53;;;;;;;40.00;21.57;;;;;;;0.33;75.21;99198.80;126654;1093;104401;-77
2020/12/04 03:47:21;;;;;;;34.07;19.40;;;;;;;0.32;75.24;99217.61;126641;1093;104458;-77
2020/12/04 03:49:48;;;;;;;33.53;19.87;;;;;;;0.30;75.14;99209.94;126719;1093;104458;-77
2020/12/04 03:52:20;;;;;;;34.37;20.13;;;;;;;0.29;75.52;99215.08;126683;1093;104394;-77
2020/12/04 03:54:48;;;;;;;34.83;20.27;;;;;;;0.27;75.22;99221.94;126677;1098;104580;-76
2020/12/04 03:57:15;;;;;;;40.20;21.17;;;;;;;0.26;75.20;99204.84;126676;1093;104305;-77
2020/12/04 03:59:42;;;;;;;33.23;19.47;;;;;;;0.26;75.49;99213.39;126675;1098;104532;-77
2020/12/04 04:02:09;;;;;;;31.13;19.77;;;;;;;0.28;75.52;99203.13;126705;1093;104430;-77
2020/12/04 04:04:36;;;;;;;37.40;20.25;;;;;;;0.28;75.44;99196.28;126665;1093;104505;-77
2020/12/04 04:07:03;;;;;;;34.67;20.07;;;;;;;0.29;75.30;99209.95;126650;1093;104455;-78
2020/12/04 04:09:30;;;;;;;32.83;20.20;;;;;;;0.27;75.52;99186.03;126664;1098;104388;-78
2020/12/04 04:11:57;;;;;;;36.67;20.93;;;;;;;0.29;75.42;99179.17;126793;1093;104394;-76
2020/12/04 04:14:24;;;;;;;33.13;19.07;;;;;;;0.29;75.67;99199.69;126684;1093;104452;-78
2020/12/04 04:16:52;;;;;;;34.43;20.33;;;;;;;0.30;75.67;99198.83;126654;1094;104491;-77
2020/12/04 04:19:19;;;;;;;37.33;20.77;;;;;;;0.29;75.52;99161.22;126686;1098;104388;-77
2020/12/04 04:21:47;;;;;;;33.10;19.53;;;;;;;0.27;75.78;99173.21;126593;1093;104450;-78
2020/12/04 04:24:14;;;;;;;32.97;19.83;;;;;;;0.27;75.69;99173.21;126674;1093;106434;-77
2020/12/04 04:26:41;;;;;;;33.97;18.57;;;;;;;0.26;75.80;99174.08;126678;1093;104517;-77
2020/12/04 04:29:08;;;;;;;33.28;19.05;;;;;;;0.26;75.88;99168.95;126639;1093;104483;-78
2020/12/04 04:31:36;;;;;;;33.87;19.67;;;;;;;0.26;76.13;99207.41;126619;1093;104516;-77
2020/12/04 04:34:03;;;;;;;35.03;20.20;;;;;;;0.26;76.11;99185.19;126673;1098;104512;-77
2020/12/04 04:36:30;;;;;;;35.67;20.33;;;;;;;0.27;76.11;99189.45;126658;1093;104465;-76
2020/12/04 04:38:57;;;;;;;34.77;19.97;;;;;;;0.27;75.89;99191.16;126745;1098;104920;-78
2020/12/04 04:41:24;;;;;;;33.73;19.40;;;;;;;0.25;76.18;99182.63;126644;1093;104469;-77
2020/12/04 04:43:53;;;;;;;33.57;20.13;;;;;;;0.24;76.39;99183.50;126694;1098;104420;-77
2020/12/04 04:46:47;;;;;;;34.47;20.33;;;;;;;0.26;76.21;99197.16;126674;1098;104817;-77
2020/12/04 04:49:29;;;;;;;31.93;19.27;;;;;;;0.28;76.29;99192.86;126671;1098;104407;-76
2020/12/04 04:51:58;;;;;;;32.43;18.80;;;;;;;0.30;76.24;99191.13;126621;1098;104542;-78
2020/12/04 04:54:27;;;;;;;29.97;18.73;;;;;;;0.31;76.06;99182.58;126707;1093;104474;-78
2020/12/04 04:56:54;;;;;;;30.53;18.37;;;;;;;0.32;76.06;99171.45;126695;1099;104507;-76
2020/12/04 04:59:22;;;;;;;29.97;17.90;;;;;;;0.33;76.12;99173.16;126672;1093;103951;-77
2020/12/04 05:01:50;;;;;;;31.27;18.27;;;;;;;0.34;76.14;99181.70;126686;1093;104582;-77
2020/12/04 05:04:17;;;;;;;33.57;19.40;;;;;;;0.35;76.01;99166.30;126487;1098;102972;-77
2020/12/04 05:06:45;;;;;;;30.40;18.80;;;;;;;0.35;76.12;99166.30;126669;1098;104557;-77
2020/12/04 05:09:26;;;;;;;32.42;19.27;;;;;;;0.38;76.09;99161.16;126683;1098;104481;-77
2020/12/04 05:11:55;;;;;;;29.93;18.23;;;;;;;0.39;75.91;99180.81;126720;1098;103364;-78
2020/12/04 05:14:24;;;;;;;31.43;18.13;;;;;;;0.38;76.22;99166.30;126674;1098;104390;-78
2020/12/04 05:16:55;;;;;;;32.15;19.40;;;;;;;0.40;76.31;99171.41;126681;1091;104395;-77
2020/12/04 05:19:36;;;;;;;30.80;18.60;;;;;;;0.41;75.80;99171.39;126704;1093;104430;-77
2020/12/04 05:22:15;;;;;;;29.87;18.53;;;;;;;0.40;75.90;99176.53;126508;1093;104395;-78
2020/12/04 05:24:44;;;;;;;29.63;18.87;;;;;;;0.40;76.11;99189.36;126673;1098;104577;-78
2020/12/04 05:27:30;;;;;;;29.93;18.60;;;;;;;0.41;76.05;99171.39;126568;1093;104463;-78
2020/12/04 05:30:00;;;;;;;30.20;17.80;;;;;;;0.39;75.94;99167.99;126664;1093;104455;-77
2020/12/04 05:32:28;;;;;;;32.03;19.03;;;;;;;0.40;76.37;99176.53;126471;1099;104523;-77
2020/12/04 05:35:09;;;;;;;30.33;18.70;;;;;;;0.40;76.09;99162.00;126758;1093;104522;-77
2020/12/04 05:37:37;;;;;;;31.20;18.07;;;;;;;0.40;76.33;99169.69;126638;1093;104462;-76
2020/12/04 05:40:04;;;;;;;31.77;18.92;;;;;;;0.39;76.30;99185.09;126700;1099;104535;-77
2020/12/04 05:42:41;;;;;;;35.33;19.40;;;;;;;0.37;76.28;99168.88;126431;1093;104500;-76
2020/12/04 05:45:08;;;;;;;28.33;17.60;;;;;;;0.37;76.34;99168.88;126444;1093;104382;-77
2020/12/04 05:47:40;;;;;;;32.77;19.87;;;;;;;0.35;76.27;99161.16;126666;1093;104445;-77
2020/12/04 05:50:10;;;;;;;31.20;18.50;;;;;;;0.36;76.43;99159.45;126662;1093;102820;-76
2020/12/04 05:52:38;;;;;;;31.80;17.80;;;;;;;0.36;76.42;99169.70;126608;1098;103160;-77
2020/12/04 05:55:07;;;;;;;28.97;17.97;;;;;;;0.35;76.60;99191.94;126639;1098;104445;-78
2020/12/04 05:57:53;;;;;;;31.10;18.43;;;;;;;0.36;76.39;99160.33;126605;1093;104298;-76
2020/12/04 06:00:21;;;;;;;31.33;18.03;;;;;;;0.36;76.57;99160.33;126738;1098;104369;-77
2020/12/04 06:03:00;;;;;;;31.43;18.77;;;;;;;0.36;76.65;99169.70;126536;1093;104420;-77
2020/12/04 06:05:28;;;;;;;30.80;18.83;;;;;;;0.35;76.76;99170.57;126653;1093;104504;-76
2020/12/04 06:07:57;;;;;;;31.43;18.77;;;;;;;0.36;76.67;99192.79;126611;1094;104596;-77
2020/12/04 06:10:24;;;;;;;32.53;18.47;;;;;;;0.34;76.87;99177.41;126685;1098;104444;-78
2020/12/04 06:12:54;;;;;;;30.07;18.50;;;;;;;0.34;76.95;99195.37;126667;1098;104454;-77
2020/12/04 06:15:27;;;;;;;31.95;19.25;;;;;;;0.33;76.85;99187.69;126691;1093;104515;-77
2020/12/04 06:18:12;;;;;;;33.60;19.17;;;;;;;0.33;76.82;99177.43;126718;1093;104461;-77
2020/12/04 06:20:48;;;;;;;33.83;19.67;;;;;;;0.33;77.20;99180.00;126613;1098;104571;-76
2020/12/04 06:23:17;;;;;;;33.50;19.92;;;;;;;0.34;77.33;99217.60;126590;1098;104366;-77
2020/12/04 06:25:55;;;;;;;33.67;19.70;;;;;;;0.33;77.12;99180.84;126474;1093;104495;-77
2020/12/04 06:28:27;;;;;;;32.13;19.97;;;;;;;0.33;77.13;99185.97;126710;1098;102017;-78
2020/12/04 06:31:05;;;;;;;34.40;19.67;;;;;;;0.34;77.26;99204.78;126689;1098;104862;-77
2020/12/04 06:33:33;;;;;;;34.00;20.07;;;;;;;0.33;77.35;99185.13;126659;1093;104448;-77
2020/12/04 06:36:00;;;;;;;31.23;18.73;;;;;;;0.34;77.51;99181.70;126723;1098;104435;-77
2020/12/04 06:38:48;;;;;;;29.50;17.90;;;;;;;0.35;77.53;99173.98;126595;1093;104390;-78
2020/12/04 06:41:18;;;;;;;;;;;;;;;0.40;76.96;99192.78;126720;1098;104372;-76
2020/12/04 06:43:47;;;;;;;30.70;18.70;;;;;;;0.43;77.32;99182.48;126626;1093;104371;-77
2020/12/04 06:46:28;;;;;;;29.50;17.97;;;;;;;0.46;77.19;99191.86;126683;1093;104621;-77
2020/12/04 06:52:14;;;;;;;31.47;18.77;;;;;;;0.58;76.94;99205.45;126634;1093;104474;-78
2020/12/04 06:54:47;;;;;;;27.40;17.47;;;;;;;0.64;76.60;99191.70;126747;1093;104462;-78
2020/12/04 06:57:17;;;;;;;33.00;19.20;;;;;;;0.67;76.54;99201.94;126710;1098;104955;-77
2020/12/04 06:59:45;;;;;;;30.87;18.27;;;;;;;0.71;76.70;99200.19;126702;1098;104558;-78
2020/12/04 07:02:24;;;;;;;30.63;17.57;;;;;;;0.74;76.15;99208.73;126675;1093;104346;-77
2020/12/04 07:04:53;;;;;;;27.93;17.27;;;;;;;0.78;76.22;99217.25;126598;1098;104529;-78
2020/12/04 07:07:27;;;;;;;30.67;18.33;;;;;;;0.82;76.17;99211.22;126464;1099;104464;-77
2020/12/04 07:10:00;;;;;;;30.57;17.43;;;;;;;0.84;76.03;99204.34;126532;1098;104500;-77
2020/12/04 07:12:31;;;;;;;29.03;18.30;;;;;;;0.87;75.78;99209.45;126503;1094;104400;-77
2020/12/04 07:14:59;;;;;;;31.65;19.00;;;;;;;0.92;75.73;99217.98;126767;1093;104465;-78
2020/12/04 07:17:29;;;;;;;31.17;18.70;;;;;;;0.94;75.56;99192.29;126669;1093;104445;-77
2020/12/04 07:19:59;;;;;;;30.53;18.90;;;;;;;0.98;75.52;99202.50;126696;1098;104401;-77
2020/12/04 07:22:27;;;;;;;30.53;19.07;;;;;;;1.01;75.16;99205.03;126702;1098;104561;-77
2020/12/04 07:24:56;;;;;;;30.67;18.23;;;;;;;1.05;75.28;99204.12;126618;1099;104859;-77
2020/12/04 07:27:29;;;;;;;27.07;17.57;;;;;;;1.09;75.08;99200.69;126609;1098;104365;-78
2020/12/04 07:29:57;;;;;;;33.60;19.53;;;;;;;1.11;74.86;99201.52;126750;1093;104471;-77
2020/12/04 07:32:26;;;;;;;27.90;17.57;;;;;;;1.14;74.82;99204.05;126710;1093;104878;-77
2020/12/04 07:34:53;;;;;;;31.43;18.47;;;;;;;1.16;74.91;99192.03;126665;1093;104590;-77
2020/12/04 07:37:26;;;;;;;34.93;19.27;;;;;;;1.19;74.66;99201.42;126630;1099;104542;-77
2020/12/04 07:39:53;;;;;;;33.53;18.13;;;;;;;1.20;74.71;99193.70;126739;1093;104382;-77
2020/12/04 07:42:20;;;;;;;29.73;18.10;;;;;;;1.24;74.49;99206.50;126697;1093;104394;-77
2020/12/04 07:44:52;;;;;;;34.50;20.13;;;;;;;1.29;74.70;99213.31;126683;1093;104411;-78
2020/12/04 07:47:19;;;;;;;33.40;19.33;;;;;;;1.37;74.12;99200.36;126664;1098;104497;-77
2020/12/04 07:50:00;;;;;;;31.50;18.73;;;;;;;1.46;73.70;99215.69;126643;1093;104430;-77
2020/12/04 07:52:35;;;;;;;31.87;18.50;;;;;;;1.62;73.51;99224.91;126605;1093;103226;-78
2020/12/04 07:55:11;;;;;;;30.23;19.37;;;;;;;1.74;72.97;99206.73;126702;1093;104503;-76
2020/12/04 07:57:57;;;;;;;32.60;19.35;;;;;;;1.88;72.71;99203.14;126728;1093;104441;-77
2020/12/04 08:00:24;;;;;;;36.53;20.57;;;;;;;2.03;72.06;99215.80;126649;1093;104473;-76
2020/12/04 08:02:51;;;;;;;39.63;20.67;;;;;;;2.10;71.41;99207.10;126668;1093;104394;-77
2020/12/04 08:05:20;;;;;;;30.87;19.03;;;;;;;2.15;71.45;99230.18;126650;1093;104474;-77
2020/12/04 08:07:53;;;;;;;35.30;19.70;;;;;;;2.21;71.24;99212.10;126687;1099;104481;-76
2020/12/04 08:10:21;;;;;;;35.73;20.23;;;;;;;2.27;71.43;99222.29;126717;1098;104385;-76
2020/12/04 08:12:50;;;;;;;34.83;20.60;;;;;;;2.30;70.97;99217.95;126779;1093;103254;-77
2020/12/04 08:15:21;;;;;;;30.53;18.50;;;;;;;2.33;70.65;99217.89;126680;1098;104628;-77
2020/12/04 08:18:00;;;;;;;32.20;20.33;;;;;;;2.41;71.04;99225.52;126664;1094;104445;-77
2020/12/04 08:20:27;;;;;;;34.13;20.77;;;;;;;2.52;70.77;99233.92;126612;1093;104475;-77
2020/12/04 08:22:55;;;;;;;36.20;19.63;;;;;;;2.66;70.35;99223.38;126673;1093;102626;-78
2020/12/04 08:25:27;;;;;;;34.87;19.33;;;;;;;2.79;70.38;99212.02;126693;1093;104378;-77
2020/12/04 08:27:55;;;;;;;31.77;18.80;;;;;;;2.91;70.04;99208.39;126645;1093;104450;-76
2020/12/04 08:30:25;;;;;;;34.00;19.53;;;;;;;3.00;68.69;99228.81;126800;1098;104439;-77
2020/12/04 08:32:56;;;;;;;33.30;20.27;;;;;;;3.05;68.78;99206.38;126752;1098;104529;-77
2020/12/04 08:35:35;;;;;;;33.50;20.45;;;;;;;3.11;68.78;99200.29;126703;1098;104486;-77
2020/12/04 08:38:07;;;;;;;34.67;20.27;;;;;;;3.13;67.96;99226.88;126702;1093;104475;-77
2020/12/04 08:40:37;;;;;;;31.33;19.07;;;;;;;3.16;69.01;99201.05;126646;1093;104413;-77
2020/12/04 08:43:24;;;;;;;33.03;21.47;;;;;;;3.08;68.13;99221.81;126720;1094;104474;-77
2020/12/04 08:45:55;;;;;;;36.37;20.73;;;;;;;2.96;68.48;99199.69;126698;1098;104452;-77
2020/12/04 08:48:26;;;;;;;32.43;19.37;;;;;;;2.85;68.46;99232.50;126744;1093;104468;-77
2020/12/04 08:50:56;;;;;;;32.47;20.83;;;;;;;2.77;69.15;99208.62;126663;1093;104413;-78
2020/12/04 08:53:24;;;;;;;33.67;20.97;;;;;;;2.70;69.16;99196.73;126688;1093;104467;-76
2020/12/04 08:55:54;;;;;;;28.20;18.57;;;;;;;2.68;69.62;99209.61;126760;1098;105629;-78
2020/12/04 08:58:23;;;;;;;32.50;19.73;;;;;;;2.73;69.72;99212.12;126695;1098;104515;-77
2020/12/04 09:00:52;;;;;;;34.07;20.43;;;;;;;2.79;69.62;99222.31;126761;1093;104621;-77
2020/12/04 09:03:21;;;;;;;35.03;20.13;;;;;;;2.85;69.21;99224.77;126769;1093;104444;-77
2020/12/04 09:05:49;;;;;;;37.73;19.47;;;;;;;2.88;69.08;99206.72;126729;1098;105663;-78
2020/12/04 09:08:16;;;;;;;34.17;20.73;;;;;;;2.94;69.41;99180.00;126551;1093;104394;-77
2020/12/04 09:10:44;;;;;;;38.97;21.00;;;;;;;2.93;68.93;99204.91;126682;1093;104365;-78
2020/12/04 09:13:11;;;;;;;36.07;20.47;;;;;;;2.89;68.87;99218.72;126695;1098;104952;-78
2020/12/04 09:15:38;;;;;;;35.60;19.67;;;;;;;2.90;69.43;99204.96;126705;1093;104425;-77
2020/12/04 09:18:06;;;;;;;32.63;20.10;;;;;;;2.89;69.71;99207.56;126668;1091;104526;-77
2020/12/04 09:20:34;;;;;;;32.50;20.57;;;;;;;2.89;69.66;99198.11;126682;1093;104394;-77
2020/12/04 09:23:02;;;;;;;35.27;21.77;;;;;;;2.83;69.77;99195.63;126671;1093;104436;-77
2020/12/04 09:25:31;;;;;;;33.17;19.90;;;;;;;2.80;69.98;99203.41;126743;1093;101950;-76
2020/12/04 09:28:16;;;;;;;33.30;20.47;;;;;;;2.81;69.73;99217.13;126690;1093;104446;-77
2020/12/04 09:30:43;;;;;;;33.60;19.77;;;;;;;2.79;70.21;99224.89;126692;1099;104558;-77
2020/12/04 09:33:10;;;;;;;31.20;20.03;;;;;;;2.80;69.89;99211.13;126669;1098;103654;-77
2020/12/04 09:35:37;;;;;;;36.87;20.73;;;;;;;2.82;69.75;99175.05;126738;1093;104474;-78
2020/12/04 09:38:05;;;;;;;35.43;21.80;;;;;;;2.83;70.02;99192.20;126715;1093;104620;-77
2020/12/04 09:40:32;;;;;;;38.47;20.33;;;;;;;2.87;69.84;99184.42;126670;1093;104519;-77
2020/12/04 09:42:59;;;;;;;34.47;19.90;;;;;;;2.93;69.69;99168.84;126695;1093;105663;-77
2020/12/04 09:45:29;;;;;;;37.13;20.87;;;;;;;2.99;70.08;99178.17;126726;1093;104798;-77
2020/12/04 09:47:57;;;;;;;38.80;21.30;;;;;;;3.02;69.87;99178.95;126806;1092;104327;-77
2020/12/04 09:50:25;;;;;;;33.30;19.13;;;;;;;3.02;70.02;99167.81;126699;1093;104494;-77
2020/12/04 09:52:52;;;;;;;31.57;18.70;;;;;;;3.01;69.69;99161.81;126732;1093;104472;-77
2020/12/04 09:55:19;;;;;;;32.37;19.43;;;;;;;3.02;69.81;99153.20;126690;1093;104632;-77
2020/12/04 09:57:46;;;;;;;33.37;20.37;;;;;;;3.03;70.11;99201.27;126726;1093;104464;-77
2020/12/04 10:00:13;;;;;;;32.33;19.43;;;;;;;3.06;70.04;99161.74;126754;1091;104454;-78
2020/12/04 10:02:41;;;;;;;33.90;19.07;;;;;;;3.10;70.27;99159.95;126764;1098;104439;-77
2020/12/04 10:05:08;;;;;;;35.27;18.90;;;;;;;3.13;70.13;99162.47;126710;1098;104239;-77
2020/12/04 10:07:36;;;;;;;33.97;19.10;;;;;;;3.13;69.34;99139.28;126700;1098;104481;-77
2020/12/04 10:10:04;;;;;;;32.80;18.73;;;;;;;3.18;69.65;99152.91;126783;1093;104454;-77
2020/12/04 10:12:31;;;;;;;32.30;19.33;;;;;;;3.22;69.58;99155.39;126679;1093;103332;-77
2020/12/04 10:14:58;;;;;;;39.73;20.33;;;;;;;3.27;69.25;99153.59;126646;1093;104462;-77
2020/12/04 10:17:26;;;;;;;39.83;20.73;;;;;;;3.28;69.69;99152.70;126496;1094;104522;-77
2020/12/04 10:19:53;;;;;;;30.83;18.30;;;;;;;3.30;69.81;99152.67;126732;1098;104408;-76
2020/12/04 10:22:20;;;;;;;30.63;18.80;;;;;;;3.33;68.93;99147.45;126720;1093;104446;-76
2020/12/04 10:24:47;;;;;;;36.30;19.17;;;;;;;3.37;69.92;99141.34;126725;1098;104478;-77
2020/12/04 10:27:14;;;;;;;36.17;18.60;;;;;;;3.37;69.29;99153.39;126747;1093;104369;-77
2020/12/04 10:29:41;;;;;;;34.63;18.20;;;;;;;3.36;69.29;99155.12;126761;1093;104556;-76
2020/12/04 10:32:08;;;;;;;32.77;19.30;;;;;;;3.40;68.84;99132.70;126623;1093;104375;-77
2020/12/04 10:34:35;;;;;;;28.40;17.93;;;;;;;3.42;69.57;99131.81;126675;1093;104452;-77
2020/12/04 10:37:02;;;;;;;32.53;19.63;;;;;;;3.43;69.04;99138.66;126651;1093;104360;-76
2020/12/04 10:39:29;;;;;;;30.30;18.13;;;;;;;3.43;69.43;99161.02;126698;1098;104523;-77
2020/12/04 10:41:57;;;;;;;32.53;18.90;;;;;;;3.45;69.23;99134.32;126693;1093;104426;-77
2020/12/04 10:44:25;;;;;;;30.37;19.23;;;;;;;3.47;69.14;99135.14;126532;1099;104423;-77
2020/12/04 10:46:52;;;;;;;34.30;19.13;;;;;;;3.46;69.12;99135.17;126692;1093;102754;-77
2020/12/04 10:49:19;;;;;;;29.98;18.35;;;;;;;3.42;69.02;99183.36;126728;1091;104930;-77
2020/12/04 10:51:54;;;;;;;29.53;17.30;;;;;;;3.44;68.87;99170.45;126648;1094;104557;-77
2020/12/04 10:54:22;;;;;;;32.60;19.30;;;;;;;3.44;69.45;99181.60;126692;1094;104465;-77
2020/12/04 10:56:54;;;;;;;31.47;19.40;;;;;;;3.45;69.13;99201.34;126719;1093;104379;-77
2020/12/04 10:59:22;;;;;;;33.43;18.87;;;;;;;3.44;68.80;99148.09;126829;1093;104312;-76
2020/12/04 11:02:07;;;;;;;30.97;18.87;;;;;;;3.45;69.54;99197.91;126751;1093;104474;-76
2020/12/04 11:07:20;;;;;;;31.07;19.00;;;;;;;3.41;69.63;99158.47;126662;1093;104435;-77
2020/12/04 11:09:59;;;;;;;37.40;18.30;;;;;;;3.40;69.34;99128.39;126665;1093;104492;-77
2020/12/04 11:12:26;;;;;;;30.40;18.70;;;;;;;3.40;69.43;99107.77;126705;1098;104961;-77
2020/12/04 11:14:53;;;;;;;34.90;19.67;;;;;;;3.40;69.34;99112.93;126710;1093;103434;-77
2020/12/04 11:17:20;;;;;;;32.43;20.00;;;;;;;3.38;69.46;99114.70;126634;1093;104436;-77
2020/12/04 11:19:47;;;;;;;32.43;18.13;;;;;;;3.37;69.78;99110.42;126724;1093;105482;-77
2020/12/04 11:22:14;;;;;;;32.63;19.00;;;;;;;3.37;69.57;99125.03;126750;1093;104461;-77
2020/12/04 11:24:41;;;;;;;29.80;18.80;;;;;;;3.34;69.51;99116.49;126808;1093;102788;-78